Terminal Aerodrome Forecast
Issued by NWS

Home | Current Version | Previous Version | Text Only | Print | Product List | Glossary Off
Versions: 1 2 3 4 5 6 7 8 9 10 11 12 13 14

000
FTUS45 KGGW 241500 AAB
TAFSDY
TAF AMD
KSDY 241527Z 2415/2512 31010KT P6SM -RA SCT020 OVC040
     FM241800 30015KT 3SM -RA BR OVC008
     FM250200 30015KT P6SM OVC025
      AMD LTD TO CLD VIS AND WIND=

USA.gov is the U.S. government's official web portal to all federal, state and local government web resources and services.